Buoy 41730

sailwx.info

Track history (hours):
 
Tides and Currents Weather Stations Pressure Air Temp Water Temp Dewpoint Dewpoint Depression Visibility Wind Speed Wind Dir Waves Ship Positions

Drifting buoy 41730

Last reported at 2018-Jan-18 01:00 UTC. Time now 2018-Jan-18 02:16 UTC.
Position N 41°02' W 043°43'.

Barometer 1028.4 mb
Water temperature 18.1 ° C

Date/timePositionNaut miles runAvg speedWind from/ knotsBaromVisibWave heightAir tempDewpointWater temp
2018-Jan-18 01:00N 41°02' W 043°43'1 0.8 1028.4 18.1
2018-Jan-18 00:00N 41°01' W 043°42'1 1.1 1028.4 18.0
2018-Jan-17 23:00N 41°01' W 043°41'1 0.8 1028.6 17.8
2018-Jan-17 22:00N 41°00' W 043°40'1 1.1 1028.6 17.7
2018-Jan-17 21:00N 40°59' W 043°39'1 1.1 1028.6 17.7
2018-Jan-17 20:00N 40°59' W 043°38'1 0.8 1028.4 17.6
2018-Jan-17 19:00N 40°58' W 043°37'1 0.9 1028.3 17.7
2018-Jan-17 18:00N 40°58' W 043°36'1 0.8 1028.3 18.0
2018-Jan-17 17:00N 40°58' W 043°35'0 0.5 1028.3 18.1
2018-Jan-17 16:00N 40°58' W 043°35'1 1.1 1028.6 18.1
2018-Jan-17 15:00N 40°57' W 043°34'1 0.8 1029.4 18.1
2018-Jan-17 14:00N 40°56' W 043°33'0 0.5 1030.1 18.0
2018-Jan-17 13:00N 40°56' W 043°32'1 0.8 1030.5 18.0
2018-Jan-17 12:00N 40°56' W 043°32'1 0.8 1030.1 18.0
2018-Jan-17 11:00N 40°55' W 043°31'2 1.5 1029.5 18.0
2018-Jan-17 10:00N 40°54' W 043°30'1 1.1 1029.5 18.0
2018-Jan-17 09:00N 40°53' W 043°29'1 0.8 1029.3 18.0
2018-Jan-17 08:00N 40°53' W 043°28'1 1.1 1029.0 18.0
2018-Jan-17 07:00N 40°52' W 043°27'1 0.8 1029.1 18.1
2018-Jan-17 06:00N 40°52' W 043°26'1 0.8 1029.5 18.2
2018-Jan-17 05:00N 40°51' W 043°26'1 0.6 1029.8 18.1
2018-Jan-17 04:00N 40°50' W 043°26'1 0.8 1030.0 18.1
2018-Jan-17 03:00N 40°50' W 043°25'1 1.3 1030.3 18.1
2018-Jan-17 02:00N 40°49' W 043°25'1 0.8 1030.9 18.1
2018-Jan-17 01:00N 40°48' W 043°24'1 0.6 1031.2 18.1
2018-Jan-17 00:00N 40°47' W 043°24'1 1.3 1031.5 18.1
2018-Jan-16 23:00N 40°46' W 043°23'1 0.6 1031.8 18.1
2018-Jan-16 22:00N 40°46' W 043°23'1 1.3 1032.1 18.1
2018-Jan-16 21:00N 40°44' W 043°23'1 0.6 1032.2 18.2
2018-Jan-16 20:00N 40°44' W 043°23'12 1.0 1032.3 18.2
2018-Jan-16 08:00N 40°32' W 043°19'1 1.2 1037.3 18.4
2018-Jan-16 07:00N 40°31' W 043°19'1 1.3 1037.8 18.4
2018-Jan-16 06:00N 40°29' W 043°19'1 0.6 1038.5 18.5
2018-Jan-16 05:00N 40°29' W 043°19'1 1.3 1038.7 18.5
2018-Jan-16 04:00N 40°28' W 043°18'1 0.6 1038.8 18.5
2018-Jan-16 03:00N 40°27' W 043°18'1 1.3 1039.5 18.6
2018-Jan-16 02:00N 40°26' W 043°17'1 1.2 1040.1 18.4
2018-Jan-16 01:00N 40°25' W 043°17'1 0.6 1040.4 18.4
2018-Jan-16 00:00N 40°24' W 043°17'1 1.3 1040.6 18.4
2018-Jan-15 23:00N 40°23' W 043°17'1 1.2 1041.0 18.4
2018-Jan-15 22:00N 40°22' W 043°17'1 1.2 1040.9 18.4
2018-Jan-15 21:00N 40°20' W 043°17'1 0.8 1040.7 18.4
2018-Jan-15 20:00N 40°20' W 043°17'3 1.0 1040.5 18.4
2018-Jan-15 17:00N 40°17' W 043°18'1 1.2 1040.5 18.6
2018-Jan-15 16:00N 40°16' W 043°18'1 1.3 1040.8 18.6
2018-Jan-15 15:00N 40°14' W 043°19'1 1.2 1041.3 18.6
2018-Jan-15 14:00N 40°13' W 043°19'1 1.3 1042.1 18.4
2018-Jan-15 13:00N 40°12' W 043°19'1 0.6 1042.4 18.3
2018-Jan-15 12:00N 40°11' W 043°19'1 1.2 1042.2 18.3
2018-Jan-15 11:00N 40°10' W 043°19'1 1.3 1041.8 18.2
2018-Jan-15 10:00N 40°09' W 043°20'1 1.3 1041.5 18.3
2018-Jan-15 09:00N 40°08' W 043°20'1 0.8 1041.6 18.3
2018-Jan-15 08:00N 40°07' W 043°21'1 1.3 1041.4 18.2
2018-Jan-15 07:00N 40°06' W 043°22'1 0.8 1041.7 18.3
2018-Jan-15 06:00N 40°05' W 043°22'1 1.3 1041.9 18.3
2018-Jan-15 05:00N 40°04' W 043°23'2 1.5 1042.3 18.3
2018-Jan-15 04:00N 40°03' W 043°24'1 0.8 1042.3 18.2
2018-Jan-15 03:00N 40°02' W 043°25'1 1.3 1042.5 18.3
2018-Jan-15 02:00N 40°01' W 043°25'2 1.5 1042.7 18.2
2018-Jan-15 01:00N 40°00' W 043°26'1 1.3 1042.6 18.2
2018-Jan-15 00:00N 39°59' W 043°27'2 1.5 1042.6 18.2
2018-Jan-14 23:00N 39°58' W 043°28'1 0.8 1042.6 18.2
2018-Jan-14 22:00N 39°57' W 043°29'2 1.5 1042.6 18.2
2018-Jan-14 21:00N 39°56' W 043°30'1 1.3 1042.4 18.2
2018-Jan-14 20:00N 39°55' W 043°31'1 1.1 1042.2 18.2
2018-Jan-14 19:00N 39°54' W 043°32'2 1.5 1042.3 18.3
2018-Jan-14 18:00N 39°53' W 043°33'1 0.8 1042.2 18.3
2018-Jan-14 17:00N 39°52' W 043°34'1 1.1 1042.2 18.2
2018-Jan-14 16:00N 39°52' W 043°35'1 1.1 1042.6 18.2
2018-Jan-14 15:00N 39°51' W 043°36'2 1.5 1043.2 18.2
2018-Jan-14 14:00N 39°50' W 043°37'2 1.5 1043.6 18.2
2018-Jan-14 13:00N 39°49' W 043°39'1 1.1 1043.5 18.2
2018-Jan-14 12:00N 39°49' W 043°40'2 1.5 1042.9 18.2
2018-Jan-14 11:00N 39°47' W 043°41'2 1.5 1042.3 18.2
2018-Jan-14 10:00N 39°47' W 043°43'1 1.1 1042.2 18.1
2018-Jan-14 09:00N 39°46' W 043°44'2 1.8 1042.1 18.1
2018-Jan-14 08:00N 39°45' W 043°46'2 1.5 1042.0 18.1
2018-Jan-14 07:00N 39°44' W 043°48'1 1.1 1041.9 18.1
2018-Jan-14 06:00N 39°44' W 043°49'2 1.5 1042.3 18.1
2018-Jan-14 05:00N 39°43' W 043°51'2 1.8 1042.4 18.1
2018-Jan-14 04:00N 39°42' W 043°53'2 1.8 1042.4 18.1
2018-Jan-14 03:00N 39°41' W 043°55'1 1.1 1042.7 18.2
2018-Jan-14 02:00N 39°40' W 043°56'2 1.5 1043.1 18.1
2018-Jan-14 01:00N 39°40' W 043°58'2 1.5 1043.0 18.2
2018-Jan-14 00:00N 39°39' W 043°59'1 1.1 1042.8 18.1
2018-Jan-13 23:00N 39°38' W 044°01'56 1.7 1042.7 18.1
2018-Jan-12 15:00N 39°41' W 045°13'2 1.5 1037.1 18.2
2018-Jan-12 14:00N 39°41' W 045°15'2 1.9 1038.2 18.1
2018-Jan-12 13:00N 39°42' W 045°17'2 1.9 1038.7 18.1
2018-Jan-12 12:00N 39°43' W 045°20'2 1.8 1038.2 18.1
2018-Jan-12 11:00N 39°44' W 045°22'2 1.9 1037.6 18.1
2018-Jan-12 10:00N 39°44' W 045°24'2 1.9 1037.0 18.1
2018-Jan-12 09:00N 39°45' W 045°26'2 1.5 1036.8 18.0
2018-Jan-12 08:00N 39°46' W 045°28'2 1.5 1036.5 18.0
2018-Jan-12 07:00N 39°46' W 045°30'2 1.9 1036.2 18.0
2018-Jan-12 06:00N 39°47' W 045°32'2 1.8 1036.2 18.1
2018-Jan-12 05:00N 39°48' W 045°34'2 1.5 1036.1 18.1
2018-Jan-12 04:00N 39°49' W 045°35'2 1.8 1035.8 18.1
2018-Jan-12 03:00N 39°50' W 045°37'2 1.9 1036.0 18.1
2018-Jan-12 02:00N 39°51' W 045°40'2 1.8 1035.9 18.1
2018-Jan-12 01:00N 39°52' W 045°41'2 1.8 1035.5 18.2
2018-Jan-12 00:00N 39°53' W 045°43'2 2.2 1035.3 18.2
2018-Jan-11 23:00N 39°55' W 045°46'2 1.8 1034.7 18.2
2018-Jan-11 22:00N 39°56' W 045°47'2 1.8 1034.1 18.2
2018-Jan-11 21:00N 39°57' W 045°49'2 2.3 1033.2 18.3
2018-Jan-11 20:00N 39°59' W 045°51'2 1.8 1032.6 18.3
2018-Jan-11 19:00N 40°00' W 045°53'2 2.2 1032.0 18.3
2018-Jan-11 18:00N 40°01' W 045°55'2 1.8 1031.4 18.3
2018-Jan-11 17:00N 40°02' W 045°57'2 1.8 1030.6 18.2
2018-Jan-11 16:00N 40°04' W 045°59'2 1.8 1029.9 18.1
2018-Jan-11 15:00N 40°05' W 046°01'2 2.3 1029.8 18.0
2018-Jan-11 14:00N 40°07' W 046°02'2 1.5 1029.8 18.0
2018-Jan-11 13:00N 40°08' W 046°04'2 2.3 1028.9 18.0
2018-Jan-11 12:00N 40°10' W 046°05'2 1.8 1027.4 17.9
2018-Jan-11 11:00N 40°11' W 046°07'2 2.3 1025.7 17.9
2018-Jan-11 10:00N 40°13' W 046°09'2 2.3 1024.4 17.9
2018-Jan-11 09:00N 40°14' W 046°11'3 2.6 1022.7 18.3
2018-Jan-11 08:00N 40°16' W 046°13'3 2.6 1021.7 18.4
2018-Jan-11 07:00N 40°18' W 046°16'3 2.6 1020.6 18.4
2018-Jan-11 06:00N 40°20' W 046°18'3 2.6 1019.6 18.4
2018-Jan-11 05:00N 40°22' W 046°20'3 2.6 1018.4 18.3
2018-Jan-11 04:00N 40°23' W 046°23'3 2.6 1017.0 18.3
2018-Jan-11 03:00N 40°25' W 046°25'3 2.6 1015.8 18.3
2018-Jan-11 02:00N 40°27' W 046°28'2 2.3 1015.0 18.3
2018-Jan-11 01:00N 40°29' W 046°29'3 2.6 1014.0 18.3
2018-Jan-11 00:00N 40°31' W 046°32'2 2.2 1013.3 18.1
2018-Jan-10 23:00N 40°32' W 046°34'2 2.2 1013.1 18.1
2018-Jan-10 22:00N 40°33' W 046°37'2 2.2 1012.4 18.1
2018-Jan-10 21:00N 40°34' W 046°39'2 1.8 1011.8 18.2
2018-Jan-10 20:00N 40°35' W 046°41'2 2.2 1010.8 18.2
2018-Jan-10 19:00N 40°37' W 046°43'2 1.8 1009.8 18.1
2018-Jan-10 18:00N 40°38' W 046°45'2 1.8 1009.3 17.9
2018-Jan-10 17:00N 40°39' W 046°47'2 2.2 1009.0 17.9
2018-Jan-10 16:00N 40°40' W 046°49'1 1.5 1009.3 17.7
2018-Jan-10 15:00N 40°41' W 046°51'2 2.2 1009.5 17.7
2018-Jan-10 14:00N 40°42' W 046°53'2 2.2 1009.4 17.5
2018-Jan-10 13:00N 40°43' W 046°56'2 1.9 1008.6 17.5
2018-Jan-10 12:00N 40°44' W 046°58'2 2.2 1007.7 17.6
2018-Jan-10 11:00N 40°45' W 047°01'2 1.9 1006.4 17.7
2018-Jan-10 10:00N 40°46' W 047°03'3 2.6 1005.6 18.4
2018-Jan-10 09:00N 40°47' W 047°06'2 2.3 1004.9 18.0
2018-Jan-10 08:00N 40°47' W 047°09'2 1.8 1005.5 18.0
2018-Jan-10 07:00N 40°47' W 047°11'2 2.3 1006.3 18.4
2018-Jan-10 06:00N 40°47' W 047°14'2 2.3 1007.5 18.6
2018-Jan-10 05:00N 40°47' W 047°17'2 2.3 1009.2 18.5
2018-Jan-10 04:00N 40°47' W 047°20'3 2.8 1010.7 18.5
2018-Jan-10 03:00N 40°46' W 047°24'2 2.3 1012.0 18.5
2018-Jan-10 02:00N 40°46' W 047°27'3 2.8 1013.6 18.6
2018-Jan-10 01:00N 40°46' W 047°31'3 2.8 1014.7 18.8
2018-Jan-10 00:00N 40°45' W 047°34'3 3.4 1016.2 19.0
2018-Jan-09 23:00N 40°44' W 047°38'3 3.2 1017.0 19.1
2018-Jan-09 22:00N 40°43' W 047°43'3 3.4 1018.3 19.2
2018-Jan-09 21:00N 40°42' W 047°47'3 3.4 1019.3 19.3
2018-Jan-09 20:00N 40°41' W 047°51'3 3.4 1020.0 19.3
2018-Jan-09 19:00N 40°40' W 047°55'3 3.4 1020.9 19.3
2018-Jan-09 18:00N 40°38' W 047°59'3 3.4 1021.3 19.3
2018-Jan-09 17:00N 40°37' W 048°04'3 3.4 1022.0 19.3
2018-Jan-09 16:00N 40°36' W 048°08'3 2.8 1023.2 19.3
2018-Jan-09 15:00N 40°35' W 048°11'3 3.4 1024.5 19.4
2018-Jan-09 14:00N 40°34' W 048°16'3 3.2 1025.5 19.4
2018-Jan-09 13:00N 40°34' W 048°20'4 3.8 1026.1 19.3
2018-Jan-09 12:00N 40°32' W 048°25'4 3.7 1025.6 19.3
2018-Jan-09 11:00N 40°32' W 048°29'4 3.7 1024.9 19.2
2018-Jan-09 10:00N 40°31' W 048°34'4 3.7 1024.6 19.2
2018-Jan-09 09:00N 40°31' W 048°39'4 4.1 1024.4 19.2
2018-Jan-09 08:00N 40°30' W 048°44'4 3.6 1024.2 19.2
2018-Jan-09 07:00N 40°30' W 048°49'4 4.2 1024.7 19.2
2018-Jan-09 06:00N 40°29' W 048°55'4 3.7 1024.8 19.1
2018-Jan-09 05:00N 40°29' W 048°59'4 3.7 1024.5 19.1
2018-Jan-09 04:00N 40°29' W 049°04'4 3.7 1024.9 19.1
2018-Jan-09 03:00N 40°28' W 049°09'4 3.7 1025.4 19.1
2018-Jan-09 02:00N 40°28' W 049°14'3 3.3 1025.7 19.1
2018-Jan-09 01:00N 40°27' W 049°18'3 3.4 1025.9 19.1
2018-Jan-09 00:00N 40°26' W 049°22'3 3.3 1026.2 19.1
2018-Jan-08 23:00N 40°25' W 049°26'3 2.8 1026.5 19.1
2018-Jan-08 22:00N 40°25' W 049°30'3 3.0 1026.7 19.0
2018-Jan-08 21:00N 40°23' W 049°34'3 3.0 1026.4 19.0
2018-Jan-08 20:00N 40°22' W 049°37'2 2.4 1026.7 19.0
2018-Jan-08 19:00N 40°22' W 049°40'3 2.6 1026.0 18.9
2018-Jan-08 18:00N 40°20' W 049°43'3 2.6 1025.7 18.8
2018-Jan-08 17:00N 40°19' W 049°46'2 1.9 1025.8 18.9
2018-Jan-08 16:00N 40°19' W 049°49'3 2.6 1026.1 18.9
2018-Jan-08 15:00N 40°17' W 049°52'2 1.9 1026.6 18.9
2018-Jan-08 14:00N 40°17' W 049°54'2 2.2 1026.8 18.4
2018-Jan-08 13:00N 40°16' W 049°56'2 1.8 1026.6 18.6
2018-Jan-08 12:00N 40°14' W 049°58'2 1.9 18.7
2018-Jan-08 11:00N 40°14' W 050°01'2 1.8 18.5
2018-Jan-08 10:00N 40°13' W 050°02'2 1.8 18.5
2018-Jan-08 09:00N 40°11' W 050°04'2 2.2 18.3
2018-Jan-08 08:00N 40°10' W 050°07'2 1.5 18.2
2018-Jan-08 07:00N 40°10' W 050°08'2 1.8 18.1
2018-Jan-08 06:00N 40°08' W 050°10'2 1.8 18.0
2018-Jan-08 05:00N 40°07' W 050°12'2 1.8 17.9
2018-Jan-08 04:00N 40°06' W 050°14'2 1.5 17.7
2018-Jan-08 03:00N 40°05' W 050°15'2 1.8 17.6
2018-Jan-08 02:00N 40°04' W 050°17'2 1.5 17.3
2018-Jan-08 01:00N 40°02' W 050°18'   17.4
Track history (hours):
 
Tides and Currents Weather Stations Pressure Air Temp Water Temp Dewpoint Dewpoint Depression Visibility Wind Speed Wind Dir Waves Ship Positions

Drifting buoy 41730

Last reported at 2018-Jan-18 01:00 UTC. Time now 2018-Jan-18 02:16 UTC.
Position N 41°02' W 043°43'.

Barometer 1028.4 mb
Water temperature 18.1 ° C

Date/timePositionNaut miles runAvg speedWind from/ knotsBaromVisibWave heightAir tempDewpointWater temp
2018-Jan-18 01:00N 41°02' W 043°43'1 0.8 1028.4 18.1
2018-Jan-18 00:00N 41°01' W 043°42'1 1.1 1028.4 18.0
2018-Jan-17 23:00N 41°01' W 043°41'1 0.8 1028.6 17.8
2018-Jan-17 22:00N 41°00' W 043°40'1 1.1 1028.6 17.7
2018-Jan-17 21:00N 40°59' W 043°39'1 1.1 1028.6 17.7
2018-Jan-17 20:00N 40°59' W 043°38'1 0.8 1028.4 17.6
2018-Jan-17 19:00N 40°58' W 043°37'1 0.9 1028.3 17.7
2018-Jan-17 18:00N 40°58' W 043°36'1 0.8 1028.3 18.0
2018-Jan-17 17:00N 40°58' W 043°35'0 0.5 1028.3 18.1
2018-Jan-17 16:00N 40°58' W 043°35'1 1.1 1028.6 18.1
2018-Jan-17 15:00N 40°57' W 043°34'1 0.8 1029.4 18.1
2018-Jan-17 14:00N 40°56' W 043°33'0 0.5 1030.1 18.0
2018-Jan-17 13:00N 40°56' W 043°32'1 0.8 1030.5 18.0
2018-Jan-17 12:00N 40°56' W 043°32'1 0.8 1030.1 18.0
2018-Jan-17 11:00N 40°55' W 043°31'2 1.5 1029.5 18.0
2018-Jan-17 10:00N 40°54' W 043°30'1 1.1 1029.5 18.0
2018-Jan-17 09:00N 40°53' W 043°29'1 0.8 1029.3 18.0
2018-Jan-17 08:00N 40°53' W 043°28'1 1.1 1029.0 18.0
2018-Jan-17 07:00N 40°52' W 043°27'1 0.8 1029.1 18.1
2018-Jan-17 06:00N 40°52' W 043°26'1 0.8 1029.5 18.2
2018-Jan-17 05:00N 40°51' W 043°26'1 0.6 1029.8 18.1
2018-Jan-17 04:00N 40°50' W 043°26'1 0.8 1030.0 18.1
2018-Jan-17 03:00N 40°50' W 043°25'1 1.3 1030.3 18.1
2018-Jan-17 02:00N 40°49' W 043°25'1 0.8 1030.9 18.1
2018-Jan-17 01:00N 40°48' W 043°24'1 0.6 1031.2 18.1
2018-Jan-17 00:00N 40°47' W 043°24'1 1.3 1031.5 18.1
2018-Jan-16 23:00N 40°46' W 043°23'1 0.6 1031.8 18.1
2018-Jan-16 22:00N 40°46' W 043°23'1 1.3 1032.1 18.1
2018-Jan-16 21:00N 40°44' W 043°23'1 0.6 1032.2 18.2
2018-Jan-16 20:00N 40°44' W 043°23'12 1.0 1032.3 18.2
2018-Jan-16 08:00N 40°32' W 043°19'1 1.2 1037.3 18.4
2018-Jan-16 07:00N 40°31' W 043°19'1 1.3 1037.8 18.4
2018-Jan-16 06:00N 40°29' W 043°19'1 0.6 1038.5 18.5
2018-Jan-16 05:00N 40°29' W 043°19'1 1.3 1038.7 18.5
2018-Jan-16 04:00N 40°28' W 043°18'1 0.6 1038.8 18.5
2018-Jan-16 03:00N 40°27' W 043°18'1 1.3 1039.5 18.6
2018-Jan-16 02:00N 40°26' W 043°17'1 1.2 1040.1 18.4
2018-Jan-16 01:00N 40°25' W 043°17'1 0.6 1040.4 18.4
2018-Jan-16 00:00N 40°24' W 043°17'1 1.3 1040.6 18.4
2018-Jan-15 23:00N 40°23' W 043°17'1 1.2 1041.0 18.4
2018-Jan-15 22:00N 40°22' W 043°17'1 1.2 1040.9 18.4
2018-Jan-15 21:00N 40°20' W 043°17'1 0.8 1040.7 18.4
2018-Jan-15 20:00N 40°20' W 043°17'3 1.0 1040.5 18.4
2018-Jan-15 17:00N 40°17' W 043°18'1 1.2 1040.5 18.6
2018-Jan-15 16:00N 40°16' W 043°18'1 1.3 1040.8 18.6
2018-Jan-15 15:00N 40°14' W 043°19'1 1.2 1041.3 18.6
2018-Jan-15 14:00N 40°13' W 043°19'1 1.3 1042.1 18.4
2018-Jan-15 13:00N 40°12' W 043°19'1 0.6 1042.4 18.3
2018-Jan-15 12:00N 40°11' W 043°19'1 1.2 1042.2 18.3
2018-Jan-15 11:00N 40°10' W 043°19'1 1.3 1041.8 18.2
2018-Jan-15 10:00N 40°09' W 043°20'1 1.3 1041.5 18.3
2018-Jan-15 09:00N 40°08' W 043°20'1 0.8 1041.6 18.3
2018-Jan-15 08:00N 40°07' W 043°21'1 1.3 1041.4 18.2
2018-Jan-15 07:00N 40°06' W 043°22'1 0.8 1041.7 18.3
2018-Jan-15 06:00N 40°05' W 043°22'1 1.3 1041.9 18.3
2018-Jan-15 05:00N 40°04' W 043°23'2 1.5 1042.3 18.3
2018-Jan-15 04:00N 40°03' W 043°24'1 0.8 1042.3 18.2
2018-Jan-15 03:00N 40°02' W 043°25'1 1.3 1042.5 18.3
2018-Jan-15 02:00N 40°01' W 043°25'2 1.5 1042.7 18.2
2018-Jan-15 01:00N 40°00' W 043°26'1 1.3 1042.6 18.2
2018-Jan-15 00:00N 39°59' W 043°27'2 1.5 1042.6 18.2
2018-Jan-14 23:00N 39°58' W 043°28'1 0.8 1042.6 18.2
2018-Jan-14 22:00N 39°57' W 043°29'2 1.5 1042.6 18.2
2018-Jan-14 21:00N 39°56' W 043°30'1 1.3 1042.4 18.2
2018-Jan-14 20:00N 39°55' W 043°31'1 1.1 1042.2 18.2
2018-Jan-14 19:00N 39°54' W 043°32'2 1.5 1042.3 18.3
2018-Jan-14 18:00N 39°53' W 043°33'1 0.8 1042.2 18.3
2018-Jan-14 17:00N 39°52' W 043°34'1 1.1 1042.2 18.2
2018-Jan-14 16:00N 39°52' W 043°35'1 1.1 1042.6 18.2
2018-Jan-14 15:00N 39°51' W 043°36'2 1.5 1043.2 18.2
2018-Jan-14 14:00N 39°50' W 043°37'2 1.5 1043.6 18.2
2018-Jan-14 13:00N 39°49' W 043°39'1 1.1 1043.5 18.2
2018-Jan-14 12:00N 39°49' W 043°40'2 1.5 1042.9 18.2
2018-Jan-14 11:00N 39°47' W 043°41'2 1.5 1042.3 18.2
2018-Jan-14 10:00N 39°47' W 043°43'1 1.1 1042.2 18.1
2018-Jan-14 09:00N 39°46' W 043°44'2 1.8 1042.1 18.1
2018-Jan-14 08:00N 39°45' W 043°46'2 1.5 1042.0 18.1
2018-Jan-14 07:00N 39°44' W 043°48'1 1.1 1041.9 18.1
2018-Jan-14 06:00N 39°44' W 043°49'2 1.5 1042.3 18.1
2018-Jan-14 05:00N 39°43' W 043°51'2 1.8 1042.4 18.1
2018-Jan-14 04:00N 39°42' W 043°53'2 1.8 1042.4 18.1
2018-Jan-14 03:00N 39°41' W 043°55'1 1.1 1042.7 18.2
2018-Jan-14 02:00N 39°40' W 043°56'2 1.5 1043.1 18.1
2018-Jan-14 01:00N 39°40' W 043°58'2 1.5 1043.0 18.2
2018-Jan-14 00:00N 39°39' W 043°59'1 1.1 1042.8 18.1
2018-Jan-13 23:00N 39°38' W 044°01'56 1.7 1042.7 18.1
2018-Jan-12 15:00N 39°41' W 045°13'2 1.5 1037.1 18.2
2018-Jan-12 14:00N 39°41' W 045°15'2 1.9 1038.2 18.1
2018-Jan-12 13:00N 39°42' W 045°17'2 1.9 1038.7 18.1
2018-Jan-12 12:00N 39°43' W 045°20'2 1.8 1038.2 18.1
2018-Jan-12 11:00N 39°44' W 045°22'2 1.9 1037.6 18.1
2018-Jan-12 10:00N 39°44' W 045°24'2 1.9 1037.0 18.1
2018-Jan-12 09:00N 39°45' W 045°26'2 1.5 1036.8 18.0
2018-Jan-12 08:00N 39°46' W 045°28'2 1.5 1036.5 18.0
2018-Jan-12 07:00N 39°46' W 045°30'2 1.9 1036.2 18.0
2018-Jan-12 06:00N 39°47' W 045°32'2 1.8 1036.2 18.1
2018-Jan-12 05:00N 39°48' W 045°34'2 1.5 1036.1 18.1
2018-Jan-12 04:00N 39°49' W 045°35'2 1.8 1035.8 18.1
2018-Jan-12 03:00N 39°50' W 045°37'2 1.9 1036.0 18.1
2018-Jan-12 02:00N 39°51' W 045°40'2 1.8 1035.9 18.1
2018-Jan-12 01:00N 39°52' W 045°41'2 1.8 1035.5 18.2
2018-Jan-12 00:00N 39°53' W 045°43'2 2.2 1035.3 18.2
2018-Jan-11 23:00N 39°55' W 045°46'2 1.8 1034.7 18.2
2018-Jan-11 22:00N 39°56' W 045°47'2 1.8 1034.1 18.2
2018-Jan-11 21:00N 39°57' W 045°49'2 2.3 1033.2 18.3
2018-Jan-11 20:00N 39°59' W 045°51'2 1.8 1032.6 18.3
2018-Jan-11 19:00N 40°00' W 045°53'2 2.2 1032.0 18.3
2018-Jan-11 18:00N 40°01' W 045°55'2 1.8 1031.4 18.3
2018-Jan-11 17:00N 40°02' W 045°57'2 1.8 1030.6 18.2
2018-Jan-11 16:00N 40°04' W 045°59'2 1.8 1029.9 18.1
2018-Jan-11 15:00N 40°05' W 046°01'2 2.3 1029.8 18.0
2018-Jan-11 14:00N 40°07' W 046°02'2 1.5 1029.8 18.0
2018-Jan-11 13:00N 40°08' W 046°04'2 2.3 1028.9 18.0
2018-Jan-11 12:00N 40°10' W 046°05'2 1.8 1027.4 17.9
2018-Jan-11 11:00N 40°11' W 046°07'2 2.3 1025.7 17.9
2018-Jan-11 10:00N 40°13' W 046°09'2 2.3 1024.4 17.9
2018-Jan-11 09:00N 40°14' W 046°11'3 2.6 1022.7 18.3
2018-Jan-11 08:00N 40°16' W 046°13'3 2.6 1021.7 18.4
2018-Jan-11 07:00N 40°18' W 046°16'3 2.6 1020.6 18.4
2018-Jan-11 06:00N 40°20' W 046°18'3 2.6 1019.6 18.4
2018-Jan-11 05:00N 40°22' W 046°20'3 2.6 1018.4 18.3
2018-Jan-11 04:00N 40°23' W 046°23'3 2.6 1017.0 18.3
2018-Jan-11 03:00N 40°25' W 046°25'3 2.6 1015.8 18.3
2018-Jan-11 02:00N 40°27' W 046°28'2 2.3 1015.0 18.3
2018-Jan-11 01:00N 40°29' W 046°29'3 2.6 1014.0 18.3
2018-Jan-11 00:00N 40°31' W 046°32'2 2.2 1013.3 18.1
2018-Jan-10 23:00N 40°32' W 046°34'2 2.2 1013.1 18.1
2018-Jan-10 22:00N 40°33' W 046°37'2 2.2 1012.4 18.1
2018-Jan-10 21:00N 40°34' W 046°39'2 1.8 1011.8 18.2
2018-Jan-10 20:00N 40°35' W 046°41'2 2.2 1010.8 18.2
2018-Jan-10 19:00N 40°37' W 046°43'2 1.8 1009.8 18.1
2018-Jan-10 18:00N 40°38' W 046°45'2 1.8 1009.3 17.9
2018-Jan-10 17:00N 40°39' W 046°47'2 2.2 1009.0 17.9
2018-Jan-10 16:00N 40°40' W 046°49'1 1.5 1009.3 17.7
2018-Jan-10 15:00N 40°41' W 046°51'2 2.2 1009.5 17.7
2018-Jan-10 14:00N 40°42' W 046°53'2 2.2 1009.4 17.5
2018-Jan-10 13:00N 40°43' W 046°56'2 1.9 1008.6 17.5
2018-Jan-10 12:00N 40°44' W 046°58'2 2.2 1007.7 17.6
2018-Jan-10 11:00N 40°45' W 047°01'2 1.9 1006.4 17.7
2018-Jan-10 10:00N 40°46' W 047°03'3 2.6 1005.6 18.4
2018-Jan-10 09:00N 40°47' W 047°06'2 2.3 1004.9 18.0
2018-Jan-10 08:00N 40°47' W 047°09'2 1.8 1005.5 18.0
2018-Jan-10 07:00N 40°47' W 047°11'2 2.3 1006.3 18.4
2018-Jan-10 06:00N 40°47' W 047°14'2 2.3 1007.5 18.6
2018-Jan-10 05:00N 40°47' W 047°17'2 2.3 1009.2 18.5
2018-Jan-10 04:00N 40°47' W 047°20'3 2.8 1010.7 18.5
2018-Jan-10 03:00N 40°46' W 047°24'2 2.3 1012.0 18.5
2018-Jan-10 02:00N 40°46' W 047°27'3 2.8 1013.6 18.6
2018-Jan-10 01:00N 40°46' W 047°31'3 2.8 1014.7 18.8
2018-Jan-10 00:00N 40°45' W 047°34'3 3.4 1016.2 19.0
2018-Jan-09 23:00N 40°44' W 047°38'3 3.2 1017.0 19.1
2018-Jan-09 22:00N 40°43' W 047°43'3 3.4 1018.3 19.2
2018-Jan-09 21:00N 40°42' W 047°47'3 3.4 1019.3 19.3
2018-Jan-09 20:00N 40°41' W 047°51'3 3.4 1020.0 19.3
2018-Jan-09 19:00N 40°40' W 047°55'3 3.4 1020.9 19.3
2018-Jan-09 18:00N 40°38' W 047°59'3 3.4 1021.3 19.3
2018-Jan-09 17:00N 40°37' W 048°04'3 3.4 1022.0 19.3
2018-Jan-09 16:00N 40°36' W 048°08'3 2.8 1023.2 19.3
2018-Jan-09 15:00N 40°35' W 048°11'3 3.4 1024.5 19.4
2018-Jan-09 14:00N 40°34' W 048°16'3 3.2 1025.5 19.4
2018-Jan-09 13:00N 40°34' W 048°20'4 3.8 1026.1 19.3
2018-Jan-09 12:00N 40°32' W 048°25'4 3.7 1025.6 19.3
2018-Jan-09 11:00N 40°32' W 048°29'4 3.7 1024.9 19.2
2018-Jan-09 10:00N 40°31' W 048°34'4 3.7 1024.6 19.2
2018-Jan-09 09:00N 40°31' W 048°39'4 4.1 1024.4 19.2
2018-Jan-09 08:00N 40°30' W 048°44'4 3.6 1024.2 19.2
2018-Jan-09 07:00N 40°30' W 048°49'4 4.2 1024.7 19.2
2018-Jan-09 06:00N 40°29' W 048°55'4 3.7 1024.8 19.1
2018-Jan-09 05:00N 40°29' W 048°59'4 3.7 1024.5 19.1
2018-Jan-09 04:00N 40°29' W 049°04'4 3.7 1024.9 19.1
2018-Jan-09 03:00N 40°28' W 049°09'4 3.7 1025.4 19.1
2018-Jan-09 02:00N 40°28' W 049°14'3 3.3 1025.7 19.1
2018-Jan-09 01:00N 40°27' W 049°18'3 3.4 1025.9 19.1
2018-Jan-09 00:00N 40°26' W 049°22'3 3.3 1026.2 19.1
2018-Jan-08 23:00N 40°25' W 049°26'3 2.8 1026.5 19.1
2018-Jan-08 22:00N 40°25' W 049°30'3 3.0 1026.7 19.0
2018-Jan-08 21:00N 40°23' W 049°34'3 3.0 1026.4 19.0
2018-Jan-08 20:00N 40°22' W 049°37'2 2.4 1026.7 19.0
2018-Jan-08 19:00N 40°22' W 049°40'3 2.6 1026.0 18.9
2018-Jan-08 18:00N 40°20' W 049°43'3 2.6 1025.7 18.8
2018-Jan-08 17:00N 40°19' W 049°46'2 1.9 1025.8 18.9
2018-Jan-08 16:00N 40°19' W 049°49'3 2.6 1026.1 18.9
2018-Jan-08 15:00N 40°17' W 049°52'2 1.9 1026.6 18.9
2018-Jan-08 14:00N 40°17' W 049°54'2 2.2 1026.8 18.4
2018-Jan-08 13:00N 40°16' W 049°56'2 1.8 1026.6 18.6
2018-Jan-08 12:00N 40°14' W 049°58'2 1.9 18.7
2018-Jan-08 11:00N 40°14' W 050°01'2 1.8 18.5
2018-Jan-08 10:00N 40°13' W 050°02'2 1.8 18.5
2018-Jan-08 09:00N 40°11' W 050°04'2 2.2 18.3
2018-Jan-08 08:00N 40°10' W 050°07'2 1.5 18.2
2018-Jan-08 07:00N 40°10' W 050°08'2 1.8 18.1
2018-Jan-08 06:00N 40°08' W 050°10'2 1.8 18.0
2018-Jan-08 05:00N 40°07' W 050°12'2 1.8 17.9
2018-Jan-08 04:00N 40°06' W 050°14'2 1.5 17.7
2018-Jan-08 03:00N 40°05' W 050°15'2 1.8 17.6
2018-Jan-08 02:00N 40°04' W 050°17'2 1.5 17.3
2018-Jan-08 01:00N 40°02' W 050°18'   17.4

Dump ship's entire track history